sensor_id;sensor_type;location;lat;lon;timestamp;temperature;humidity
32895;DHT22;19251;49.484;8.260;2023-07-31T00:04:33;22.90;12.40
32895;DHT22;19251;49.484;8.260;2023-07-31T00:09:35;22.30;12.20
32895;DHT22;19251;49.484;8.260;2023-07-31T00:14:37;22.60;12.50
32895;DHT22;19251;49.484;8.260;2023-07-31T00:19:39;22.60;12.50
32895;DHT22;19251;49.484;8.260;2023-07-31T00:24:41;22.70;12.70
32895;DHT22;19251;49.484;8.260;2023-07-31T00:29:43;22.50;12.70
32895;DHT22;19251;49.484;8.260;2023-07-31T00:34:45;22.40;12.80
32895;DHT22;19251;49.484;8.260;2023-07-31T00:39:47;22.40;12.20
32895;DHT22;19251;49.484;8.260;2023-07-31T00:44:50;22.40;13.00
32895;DHT22;19251;49.484;8.260;2023-07-31T00:49:52;22.80;13.40
32895;DHT22;19251;49.484;8.260;2023-07-31T00:54:54;22.30;13.10
32895;DHT22;19251;49.484;8.260;2023-07-31T00:59:57;22.30;13.30
32895;DHT22;19251;49.484;8.260;2023-07-31T01:05:00;22.30;13.30
32895;DHT22;19251;49.484;8.260;2023-07-31T01:15:09;22.40;13.80
32895;DHT22;19251;49.484;8.260;2023-07-31T01:20:24;22.20;13.80
32895;DHT22;19251;49.484;8.260;2023-07-31T01:30:55;22.10;13.90
32895;DHT22;19251;49.484;8.260;2023-07-31T01:36:01;21.90;14.00
32895;DHT22;19251;49.484;8.260;2023-07-31T01:41:03;22.10;13.40
32895;DHT22;19251;49.484;8.260;2023-07-31T01:46:05;22.20;14.30
32895;DHT22;19251;49.484;8.260;2023-07-31T01:51:07;21.90;14.20
32895;DHT22;19251;49.484;8.260;2023-07-31T01:56:10;21.90;14.50
32895;DHT22;19251;49.484;8.260;2023-07-31T02:01:12;21.90;14.60
32895;DHT22;19251;49.484;8.260;2023-07-31T02:06:14;21.90;14.70
32895;DHT22;19251;49.484;8.260;2023-07-31T02:11:17;21.90;14.90
32895;DHT22;19251;49.484;8.260;2023-07-31T02:16:19;22.40;15.10
32895;DHT22;19251;49.484;8.260;2023-07-31T02:21:22;22.00;15.00
32895;DHT22;19251;49.484;8.260;2023-07-31T02:26:24;21.90;14.90
32895;DHT22;19251;49.484;8.260;2023-07-31T02:31:26;21.80;14.80
32895;DHT22;19251;49.484;8.260;2023-07-31T02:36:28;21.70;15.00
32895;DHT22;19251;49.484;8.260;2023-07-31T02:41:30;21.90;14.70
32895;DHT22;19251;49.484;8.260;2023-07-31T02:46:32;21.50;15.00
32895;DHT22;19251;49.484;8.260;2023-07-31T02:51:35;21.60;15.20
32895;DHT22;19251;49.484;8.260;2023-07-31T02:56:37;21.80;15.40
32895;DHT22;19251;49.484;8.260;2023-07-31T03:01:39;21.80;15.40
32895;DHT22;19251;49.484;8.260;2023-07-31T03:06:41;21.70;15.30
32895;DHT22;19251;49.484;8.260;2023-07-31T03:11:44;21.90;15.60
32895;DHT22;19251;49.484;8.260;2023-07-31T03:16:46;21.90;15.60
32895;DHT22;19251;49.484;8.260;2023-07-31T03:21:48;21.70;15.50
32895;DHT22;19251;49.484;8.260;2023-07-31T03:26:50;21.60;15.40
32895;DHT22;19251;49.484;8.260;2023-07-31T03:31:52;21.60;14.90
32895;DHT22;19251;49.484;8.260;2023-07-31T03:36:54;21.60;15.50
32895;DHT22;19251;49.484;8.260;2023-07-31T03:41:56;21.60;14.90
32895;DHT22;19251;49.484;8.260;2023-07-31T03:46:58;21.30;15.40
32895;DHT22;19251;49.484;8.260;2023-07-31T03:52:01;21.40;14.90
32895;DHT22;19251;49.484;8.260;2023-07-31T03:57:03;21.70;15.20
32895;DHT22;19251;49.484;8.260;2023-07-31T04:02:06;21.50;15.10
32895;DHT22;19251;49.484;8.260;2023-07-31T04:07:08;21.20;15.60
32895;DHT22;19251;49.484;8.260;2023-07-31T04:12:10;21.60;16.00
32895;DHT22;19251;49.484;8.260;2023-07-31T04:17:12;21.30;15.80
32895;DHT22;19251;49.484;8.260;2023-07-31T04:22:14;21.60;16.00
32895;DHT22;19251;49.484;8.260;2023-07-31T04:27:16;21.40;16.00
32895;DHT22;19251;49.484;8.260;2023-07-31T04:32:18;21.40;16.00
32895;DHT22;19251;49.484;8.260;2023-07-31T04:37:22;21.40;16.10
32895;DHT22;19251;49.484;8.260;2023-07-31T04:42:24;21.40;15.50
32895;DHT22;19251;49.484;8.260;2023-07-31T04:47:27;21.30;16.10
32895;DHT22;19251;49.484;8.260;2023-07-31T04:52:29;21.50;15.80
32895;DHT22;19251;49.484;8.260;2023-07-31T04:57:31;21.40;16.40
32895;DHT22;19251;49.484;8.260;2023-07-31T05:02:33;21.40;16.40
32895;DHT22;19251;49.484;8.260;2023-07-31T05:07:35;21.30;16.40
32895;DHT22;19251;49.484;8.260;2023-07-31T05:12:38;21.30;16.50
32895;DHT22;19251;49.484;8.260;2023-07-31T05:17:41;21.60;16.10
32895;DHT22;19251;49.484;8.260;2023-07-31T05:22:43;21.70;16.90
32895;DHT22;19251;49.484;8.260;2023-07-31T05:27:45;21.40;16.60
32895;DHT22;19251;49.484;8.260;2023-07-31T05:32:50;21.80;17.00
32895;DHT22;19251;49.484;8.260;2023-07-31T05:37:52;21.80;17.00
32895;DHT22;19251;49.484;8.260;2023-07-31T05:42:56;22.00;16.30
32895;DHT22;19251;49.484;8.260;2023-07-31T05:47:58;21.90;16.70
32895;DHT22;19251;49.484;8.260;2023-07-31T05:53:00;22.20;16.80
32895;DHT22;19251;49.484;8.260;2023-07-31T05:58:02;22.50;16.10
32895;DHT22;19251;49.484;8.260;2023-07-31T06:03:07;22.40;16.60
32895;DHT22;19251;49.484;8.260;2023-07-31T06:08:09;22.50;16.50
32895;DHT22;19251;49.484;8.260;2023-07-31T06:13:12;22.50;16.30
32895;DHT22;19251;49.484;8.260;2023-07-31T06:18:14;22.40;16.10
32895;DHT22;19251;49.484;8.260;2023-07-31T06:23:16;22.50;16.00
32895;DHT22;19251;49.484;8.260;2023-07-31T06:28:20;22.50;15.90
32895;DHT22;19251;49.484;8.260;2023-07-31T06:33:23;22.70;16.10
32895;DHT22;19251;49.484;8.260;2023-07-31T06:38:25;22.70;16.10
32895;DHT22;19251;49.484;8.260;2023-07-31T06:43:29;22.80;15.50
32895;DHT22;19251;49.484;8.260;2023-07-31T06:48:31;22.80;15.90
32895;DHT22;19251;49.484;8.260;2023-07-31T06:53:33;22.80;15.90
32895;DHT22;19251;49.484;8.260;2023-07-31T06:58:35;22.90;15.80
32895;DHT22;19251;49.484;8.260;2023-07-31T07:03:37;23.10;15.90
32895;DHT22;19251;49.484;8.260;2023-07-31T07:08:40;23.10;15.70
32895;DHT22;19251;49.484;8.260;2023-07-31T07:13:42;23.20;15.00
32895;DHT22;19251;49.484;8.260;2023-07-31T07:18:46;23.10;15.30
32895;DHT22;19251;49.484;8.260;2023-07-31T07:24:06;23.90;15.80
32895;DHT22;19251;49.484;8.260;2023-07-31T07:29:09;24.00;15.30
32895;DHT22;19251;49.484;8.260;2023-07-31T07:34:12;24.20;15.10
32895;DHT22;19251;49.484;8.260;2023-07-31T07:39:14;24.60;14.40
32895;DHT22;19251;49.484;8.260;2023-07-31T07:44:17;24.80;14.00
32895;DHT22;19251;49.484;8.260;2023-07-31T07:49:19;24.80;14.40
32895;DHT22;19251;49.484;8.260;2023-07-31T07:54:21;25.10;13.90
32895;DHT22;19251;49.484;8.260;2023-07-31T07:59:23;25.30;13.80
32895;DHT22;19251;49.484;8.260;2023-07-31T08:04:25;25.50;12.90
32895;DHT22;19251;49.484;8.260;2023-07-31T08:09:27;25.60;13.00
32895;DHT22;19251;49.484;8.260;2023-07-31T08:14:30;25.60;13.00
32895;DHT22;19251;49.484;8.260;2023-07-31T08:19:42;25.70;11.70
32895;DHT22;19251;49.484;8.260;2023-07-31T08:24:44;25.90;10.80
32895;DHT22;19251;49.484;8.260;2023-07-31T08:29:46;26.20;10.50
32895;DHT22;19251;49.484;8.260;2023-07-31T08:34:51;26.30;11.20
32895;DHT22;19251;49.484;8.260;2023-07-31T08:39:53;26.50;10.10
32895;DHT22;19251;49.484;8.260;2023-07-31T08:44:57;26.60;10.40
32895;DHT22;19251;49.484;8.260;2023-07-31T08:50:00;26.70;10.10
32895;DHT22;19251;49.484;8.260;2023-07-31T08:55:05;26.80;9.60
32895;DHT22;19251;49.484;8.260;2023-07-31T09:00:09;26.70;9.20
32895;DHT22;19251;49.484;8.260;2023-07-31T09:05:12;27.10;8.40
32895;DHT22;19251;49.484;8.260;2023-07-31T09:10:14;27.20;8.50
32895;DHT22;19251;49.484;8.260;2023-07-31T09:15:17;27.10;8.70
32895;DHT22;19251;49.484;8.260;2023-07-31T09:20:37;27.10;8.50
32895;DHT22;19251;49.484;8.260;2023-07-31T09:25:43;27.10;8.30
32895;DHT22;19251;49.484;8.260;2023-07-31T09:30:50;27.20;8.00
32895;DHT22;19251;49.484;8.260;2023-07-31T09:35:53;27.10;7.90
32895;DHT22;19251;49.484;8.260;2023-07-31T09:40:58;27.50;7.20
32895;DHT22;19251;49.484;8.260;2023-07-31T09:46:01;27.40;8.00
32895;DHT22;19251;49.484;8.260;2023-07-31T09:51:04;27.60;7.80
32895;DHT22;19251;49.484;8.260;2023-07-31T09:56:07;27.60;7.80
32895;DHT22;19251;49.484;8.260;2023-07-31T10:01:09;27.80;8.20
32895;DHT22;19251;49.484;8.260;2023-07-31T10:06:13;27.80;5.80
32895;DHT22;19251;49.484;8.260;2023-07-31T10:11:18;28.00;6.50
32895;DHT22;19251;49.484;8.260;2023-07-31T10:16:20;27.60;6.30
32895;DHT22;19251;49.484;8.260;2023-07-31T10:21:23;27.60;6.20
32895;DHT22;19251;49.484;8.260;2023-07-31T10:26:25;27.60;6.30
32895;DHT22;19251;49.484;8.260;2023-07-31T10:31:28;27.70;6.30
32895;DHT22;19251;49.484;8.260;2023-07-31T10:36:31;27.80;5.10
32895;DHT22;19251;49.484;8.260;2023-07-31T10:41:33;27.80;6.40
32895;DHT22;19251;49.484;8.260;2023-07-31T10:46:36;27.70;6.00
32895;DHT22;19251;49.484;8.260;2023-07-31T10:51:40;27.80;5.60
32895;DHT22;19251;49.484;8.260;2023-07-31T10:56:46;27.70;6.10
32895;DHT22;19251;49.484;8.260;2023-07-31T11:01:54;27.70;5.60
32895;DHT22;19251;49.484;8.260;2023-07-31T11:07:01;27.70;5.50
32895;DHT22;19251;49.484;8.260;2023-07-31T11:12:06;27.60;5.50
32895;DHT22;19251;49.484;8.260;2023-07-31T11:17:09;27.50;5.40
32895;DHT22;19251;49.484;8.260;2023-07-31T11:22:11;27.70;5.60
32895;DHT22;19251;49.484;8.260;2023-07-31T11:27:13;27.70;5.90
32895;DHT22;19251;49.484;8.260;2023-07-31T11:32:16;27.70;6.10
32895;DHT22;19251;49.484;8.260;2023-07-31T11:42:22;27.50;5.30
32895;DHT22;19251;49.484;8.260;2023-07-31T11:47:25;27.30;5.80
32895;DHT22;19251;49.484;8.260;2023-07-31T11:52:40;27.30;5.90
32895;DHT22;19251;49.484;8.260;2023-07-31T11:57:45;27.20;6.00
32895;DHT22;19251;49.484;8.260;2023-07-31T12:02:49;27.10;6.30
32895;DHT22;19251;49.484;8.260;2023-07-31T12:07:53;27.10;6.30
32895;DHT22;19251;49.484;8.260;2023-07-31T12:13:02;27.00;6.30
32895;DHT22;19251;49.484;8.260;2023-07-31T12:18:06;27.50;6.70
32895;DHT22;19251;49.484;8.260;2023-07-31T12:23:14;27.20;6.70
32895;DHT22;19251;49.484;8.260;2023-07-31T12:28:22;27.60;6.10
32895;DHT22;19251;49.484;8.260;2023-07-31T12:33:29;27.80;6.10
32895;DHT22;19251;49.484;8.260;2023-07-31T12:38:33;28.40;5.20
32895;DHT22;19251;49.484;8.260;2023-07-31T12:43:37;28.30;5.50
32895;DHT22;19251;49.484;8.260;2023-07-31T12:48:39;28.60;5.90
32895;DHT22;19251;49.484;8.260;2023-07-31T12:53:42;28.80;4.30
32895;DHT22;19251;49.484;8.260;2023-07-31T12:58:45;29.00;4.50
32895;DHT22;19251;49.484;8.260;2023-07-31T13:03:47;29.20;4.40
32895;DHT22;19251;49.484;8.260;2023-07-31T13:08:50;29.40;4.40
32895;DHT22;19251;49.484;8.260;2023-07-31T13:13:52;29.30;4.00
32895;DHT22;19251;49.484;8.260;2023-07-31T13:18:54;29.20;4.30
32895;DHT22;19251;49.484;8.260;2023-07-31T13:23:56;28.90;4.70
32895;DHT22;19251;49.484;8.260;2023-07-31T13:29:01;28.70;4.80
32895;DHT22;19251;49.484;8.260;2023-07-31T13:34:03;28.80;4.90
32895;DHT22;19251;49.484;8.260;2023-07-31T13:39:06;28.80;5.30
32895;DHT22;19251;49.484;8.260;2023-07-31T13:44:08;28.30;4.90
32895;DHT22;19251;49.484;8.260;2023-07-31T13:49:10;28.60;5.20
32895;DHT22;19251;49.484;8.260;2023-07-31T13:54:12;28.20;4.70
32895;DHT22;19251;49.484;8.260;2023-07-31T13:59:15;28.20;5.70
32895;DHT22;19251;49.484;8.260;2023-07-31T14:04:18;28.00;6.10
32895;DHT22;19251;49.484;8.260;2023-07-31T14:09:21;28.00;6.40
32895;DHT22;19251;49.484;8.260;2023-07-31T14:14:23;27.90;6.60
32895;DHT22;19251;49.484;8.260;2023-07-31T14:19:25;27.80;6.30
32895;DHT22;19251;49.484;8.260;2023-07-31T14:24:28;27.80;6.00
32895;DHT22;19251;49.484;8.260;2023-07-31T14:29:30;27.80;6.10
32895;DHT22;19251;49.484;8.260;2023-07-31T14:34:32;27.70;6.00
32895;DHT22;19251;49.484;8.260;2023-07-31T14:39:34;27.40;6.40
32895;DHT22;19251;49.484;8.260;2023-07-31T14:44:39;27.60;6.60
32895;DHT22;19251;49.484;8.260;2023-07-31T14:49:41;27.60;7.00
32895;DHT22;19251;49.484;8.260;2023-07-31T14:54:45;28.00;6.30
32895;DHT22;19251;49.484;8.260;2023-07-31T14:59:48;27.90;6.30
32895;DHT22;19251;49.484;8.260;2023-07-31T15:04:50;28.10;7.00
32895;DHT22;19251;49.484;8.260;2023-07-31T15:09:52;28.30;6.20
32895;DHT22;19251;49.484;8.260;2023-07-31T15:14:54;28.40;5.90
32895;DHT22;19251;49.484;8.260;2023-07-31T15:19:57;28.40;6.10
32895;DHT22;19251;49.484;8.260;2023-07-31T15:24:59;28.50;6.00
32895;DHT22;19251;49.484;8.260;2023-07-31T15:30:01;28.30;5.90
32895;DHT22;19251;49.484;8.260;2023-07-31T15:35:06;28.10;5.60
32895;DHT22;19251;49.484;8.260;2023-07-31T15:40:09;28.10;6.30
32895;DHT22;19251;49.484;8.260;2023-07-31T15:50:14;27.90;5.80
32895;DHT22;19251;49.484;8.260;2023-07-31T15:55:16;27.90;6.70
32895;DHT22;19251;49.484;8.260;2023-07-31T16:00:19;27.70;6.10
32895;DHT22;19251;49.484;8.260;2023-07-31T16:05:22;27.90;7.50
32895;DHT22;19251;49.484;8.260;2023-07-31T16:10:24;27.70;8.40
32895;DHT22;19251;49.484;8.260;2023-07-31T16:15:26;27.30;8.50
32895;DHT22;19251;49.484;8.260;2023-07-31T16:20:29;27.40;9.90
32895;DHT22;19251;49.484;8.260;2023-07-31T16:25:31;27.20;9.70
32895;DHT22;19251;49.484;8.260;2023-07-31T16:30:33;27.10;10.60
32895;DHT22;19251;49.484;8.260;2023-07-31T16:35:40;27.10;11.00
32895;DHT22;19251;49.484;8.260;2023-07-31T16:40:42;27.00;11.20
32895;DHT22;19251;49.484;8.260;2023-07-31T16:45:44;26.80;12.50
32895;DHT22;19251;49.484;8.260;2023-07-31T16:50:47;26.40;13.40
32895;DHT22;19251;49.484;8.260;2023-07-31T16:55:49;26.50;13.70
32895;DHT22;19251;49.484;8.260;2023-07-31T17:00:51;26.30;13.90
32895;DHT22;19251;49.484;8.260;2023-07-31T17:05:53;26.30;14.40
32895;DHT22;19251;49.484;8.260;2023-07-31T17:10:55;26.00;14.60
32895;DHT22;19251;49.484;8.260;2023-07-31T17:15:58;26.20;15.60
32895;DHT22;19251;49.484;8.260;2023-07-31T17:21:00;25.90;15.10
32895;DHT22;19251;49.484;8.260;2023-07-31T17:26:02;25.70;16.50
32895;DHT22;19251;49.484;8.260;2023-07-31T17:31:06;25.50;16.80
32895;DHT22;19251;49.484;8.260;2023-07-31T17:36:09;25.00;17.50
32895;DHT22;19251;49.484;8.260;2023-07-31T17:41:11;24.80;17.80
32895;DHT22;19251;49.484;8.260;2023-07-31T17:46:14;24.80;19.40
32895;DHT22;19251;49.484;8.260;2023-07-31T17:51:16;24.50;18.90
32895;DHT22;19251;49.484;8.260;2023-07-31T17:56:20;24.10;19.30
32895;DHT22;19251;49.484;8.260;2023-07-31T18:01:22;24.30;20.20
32895;DHT22;19251;49.484;8.260;2023-07-31T18:06:24;24.40;20.30
32895;DHT22;19251;49.484;8.260;2023-07-31T18:11:26;24.30;19.90
32895;DHT22;19251;49.484;8.260;2023-07-31T18:16:31;24.00;19.90
32895;DHT22;19251;49.484;8.260;2023-07-31T18:21:35;23.90;19.70
32895;DHT22;19251;49.484;8.260;2023-07-31T18:26:38;24.00;20.00
32895;DHT22;19251;49.484;8.260;2023-07-31T18:31:40;23.90;20.10
32895;DHT22;19251;49.484;8.260;2023-07-31T18:36:43;24.00;20.30
32895;DHT22;19251;49.484;8.260;2023-07-31T18:41:45;23.70;19.50
32895;DHT22;19251;49.484;8.260;2023-07-31T18:46:47;23.70;20.50
32895;DHT22;19251;49.484;8.260;2023-07-31T18:51:50;23.50;20.00
32895;DHT22;19251;49.484;8.260;2023-07-31T18:56:52;23.50;20.70
32895;DHT22;19251;49.484;8.260;2023-07-31T19:01:54;23.50;21.00
32895;DHT22;19251;49.484;8.260;2023-07-31T19:06:57;23.60;20.20
32895;DHT22;19251;49.484;8.260;2023-07-31T19:11:59;23.30;21.00
32895;DHT22;19251;49.484;8.260;2023-07-31T19:17:01;23.30;21.90
32895;DHT22;19251;49.484;8.260;2023-07-31T19:22:05;23.20;21.00
32895;DHT22;19251;49.484;8.260;2023-07-31T19:27:07;23.20;21.20
32895;DHT22;19251;49.484;8.260;2023-07-31T19:32:09;22.90;20.30
32895;DHT22;19251;49.484;8.260;2023-07-31T19:37:11;22.90;20.40
32895;DHT22;19251;49.484;8.260;2023-07-31T19:42:15;23.10;20.70
32895;DHT22;19251;49.484;8.260;2023-07-31T19:47:17;23.10;21.60
32895;DHT22;19251;49.484;8.260;2023-07-31T19:52:19;23.10;21.70
32895;DHT22;19251;49.484;8.260;2023-07-31T19:57:22;22.90;21.70
32895;DHT22;19251;49.484;8.260;2023-07-31T20:02:24;23.00;21.80
32895;DHT22;19251;49.484;8.260;2023-07-31T20:07:28;23.00;21.20
32895;DHT22;19251;49.484;8.260;2023-07-31T20:12:30;23.10;22.00
32895;DHT22;19251;49.484;8.260;2023-07-31T20:17:32;23.00;21.90
32895;DHT22;19251;49.484;8.260;2023-07-31T20:22:35;22.50;21.50
32895;DHT22;19251;49.484;8.260;2023-07-31T20:27:37;22.80;22.40
32895;DHT22;19251;49.484;8.260;2023-07-31T20:32:39;22.60;21.10
32895;DHT22;19251;49.484;8.260;2023-07-31T20:37:42;22.90;21.90
32895;DHT22;19251;49.484;8.260;2023-07-31T20:42:55;22.80;21.40
32895;DHT22;19251;49.484;8.260;2023-07-31T20:47:58;22.80;21.80
32895;DHT22;19251;49.484;8.260;2023-07-31T20:53:01;22.50;21.60
32895;DHT22;19251;49.484;8.260;2023-07-31T20:58:06;22.80;21.80
32895;DHT22;19251;49.484;8.260;2023-07-31T21:03:08;22.80;21.70
32895;DHT22;19251;49.484;8.260;2023-07-31T21:08:10;22.70;21.70
32895;DHT22;19251;49.484;8.260;2023-07-31T21:13:13;22.50;21.50
32895;DHT22;19251;49.484;8.260;2023-07-31T21:18:15;22.80;21.70
32895;DHT22;19251;49.484;8.260;2023-07-31T21:23:17;22.70;21.70
32895;DHT22;19251;49.484;8.260;2023-07-31T21:28:19;22.80;21.20
32895;DHT22;19251;49.484;8.260;2023-07-31T21:33:24;22.70;21.70
32895;DHT22;19251;49.484;8.260;2023-07-31T21:38:27;22.90;22.20
32895;DHT22;19251;49.484;8.260;2023-07-31T21:43:29;22.70;22.40
32895;DHT22;19251;49.484;8.260;2023-07-31T21:48:31;22.60;22.00
32895;DHT22;19251;49.484;8.260;2023-07-31T21:53:33;22.70;22.90
32895;DHT22;19251;49.484;8.260;2023-07-31T21:58:36;22.70;23.20
32895;DHT22;19251;49.484;8.260;2023-07-31T22:03:38;22.60;23.50
32895;DHT22;19251;49.484;8.260;2023-07-31T22:08:41;22.60;23.50
32895;DHT22;19251;49.484;8.260;2023-07-31T22:13:43;22.60;23.50
32895;DHT22;19251;49.484;8.260;2023-07-31T22:18:46;22.60;23.50
32895;DHT22;19251;49.484;8.260;2023-07-31T22:23:48;22.60;23.80
32895;DHT22;19251;49.484;8.260;2023-07-31T22:28:50;22.50;24.30
32895;DHT22;19251;49.484;8.260;2023-07-31T22:33:52;22.60;23.60
32895;DHT22;19251;49.484;8.260;2023-07-31T22:38:54;22.50;24.70
32895;DHT22;19251;49.484;8.260;2023-07-31T22:43:57;22.50;24.80
32895;DHT22;19251;49.484;8.260;2023-07-31T22:48:59;22.40;24.80
32895;DHT22;19251;49.484;8.260;2023-07-31T22:54:01;22.30;25.50
32895;DHT22;19251;49.484;8.260;2023-07-31T22:59:04;22.40;25.60
32895;DHT22;19251;49.484;8.260;2023-07-31T23:04:06;22.40;25.00
32895;DHT22;19251;49.484;8.260;2023-07-31T23:09:08;22.30;24.50
32895;DHT22;19251;49.484;8.260;2023-07-31T23:14:10;22.30;25.10
32895;DHT22;19251;49.484;8.260;2023-07-31T23:19:13;22.40;25.20
32895;DHT22;19251;49.484;8.260;2023-07-31T23:24:15;22.40;25.40
32895;DHT22;19251;49.484;8.260;2023-07-31T23:29:17;22.30;25.40
32895;DHT22;19251;49.484;8.260;2023-07-31T23:34:19;22.30;25.50
32895;DHT22;19251;49.484;8.260;2023-07-31T23:39:22;22.30;25.10
32895;DHT22;19251;49.484;8.260;2023-07-31T23:44:24;22.10;26.30
32895;DHT22;19251;49.484;8.260;2023-07-31T23:49:26;22.30;26.10
32895;DHT22;19251;49.484;8.260;2023-07-31T23:54:28;22.20;26.10
32895;DHT22;19251;49.484;8.260;2023-07-31T23:59:31;22.00;26.10
